createdAt,value
2024-05-09T00:01:10.279Z,89.3
2024-05-09T00:02:55.297Z,90.4
2024-05-09T00:04:11.324Z,90.4
2024-05-09T00:07:12.346Z,90.7
2024-05-09T00:10:13.373Z,91.1
2024-05-09T00:13:14.394Z,91.2
2024-05-09T00:16:15.421Z,91.9
2024-05-09T00:19:16.448Z,90.8
2024-05-09T00:22:17.473Z,90.3
2024-05-09T00:25:18.493Z,91
2024-05-09T00:28:19.518Z,91.5
2024-05-09T00:31:20.542Z,91.6
2024-05-09T00:33:05.551Z,90.4
2024-05-09T00:34:21.583Z,90.4
2024-05-09T00:37:22.611Z,90.9
2024-05-09T00:40:23.632Z,91.5
2024-05-09T00:43:24.650Z,92
2024-05-09T00:46:25.681Z,92.4
2024-05-09T00:49:26.700Z,91.7
2024-05-09T00:52:27.725Z,91.5
2024-05-09T00:55:28.751Z,91.7
2024-05-09T00:58:29.773Z,92.5
2024-05-09T01:01:30.795Z,91.8
2024-05-09T01:03:15.809Z,91.5
2024-05-09T01:04:31.841Z,91.4
2024-05-09T01:07:32.863Z,91.8
2024-05-09T01:10:33.881Z,92.3
2024-05-09T01:13:34.906Z,91.9
2024-05-09T01:16:35.932Z,91.3
2024-05-09T01:19:36.958Z,90.8
2024-05-09T01:22:37.984Z,90
2024-05-09T01:25:39.006Z,90.7
2024-05-09T01:28:40.023Z,92.4
2024-05-09T01:31:41.046Z,92.8
2024-05-09T01:33:26.063Z,92.8
2024-05-09T01:34:42.089Z,92.7
2024-05-09T01:37:43.112Z,92.7
2024-05-09T01:40:44.141Z,92.4
2024-05-09T01:43:45.166Z,92
2024-05-09T01:46:46.188Z,92
2024-05-09T01:49:47.208Z,93.2
2024-05-09T01:52:48.230Z,93.3
2024-05-09T01:55:49.260Z,93.2
2024-05-09T01:58:50.281Z,93.2
2024-05-09T02:01:51.306Z,93.5
2024-05-09T02:03:36.314Z,93.2
2024-05-09T02:04:52.351Z,92.8
2024-05-09T02:07:53.370Z,92.8
2024-05-09T02:10:54.388Z,93
2024-05-09T02:13:55.412Z,93.2
2024-05-09T02:16:56.443Z,94.6
2024-05-09T02:19:57.463Z,95.3
2024-05-09T02:22:58.483Z,95.2
2024-05-09T02:25:59.511Z,95.3
2024-05-09T02:29:00.533Z,95
2024-05-09T02:31:58.930Z,94.1
2024-05-09T02:33:46.569Z,94.5
2024-05-09T02:35:02.597Z,94.5
2024-05-09T02:38:03.619Z,94.1
2024-05-09T02:41:04.644Z,93.2
2024-05-09T02:44:05.667Z,93.7
2024-05-09T02:47:06.689Z,94.2
2024-05-09T02:50:07.712Z,94.7
2024-05-09T02:53:08.736Z,95.5
2024-05-09T02:56:09.760Z,95.9
2024-05-09T02:59:10.784Z,95.8
2024-05-09T03:02:11.805Z,95.9
2024-05-09T03:03:56.815Z,95.7
2024-05-09T03:08:13.875Z,95.4
2024-05-09T03:11:14.894Z,95.1
2024-05-09T03:14:15.924Z,95.4
2024-05-09T03:17:16.943Z,94.3
2024-05-09T03:20:17.963Z,93.9
2024-05-09T03:23:18.989Z,94.3
2024-05-09T03:26:20.014Z,94.4
2024-05-09T03:29:21.034Z,94.8
2024-05-09T03:32:22.057Z,95.1
2024-05-09T03:34:07.072Z,94.3
2024-05-09T03:35:23.085Z,94
2024-05-09T03:38:24.106Z,94.3
2024-05-09T03:41:25.134Z,95
2024-05-09T03:44:26.153Z,94.8
2024-05-09T03:47:27.178Z,93.9
2024-05-09T03:50:28.199Z,93.8
2024-05-09T03:53:29.220Z,94.6
2024-05-09T03:56:30.253Z,94.4
2024-05-09T03:59:31.268Z,94.8
2024-05-09T04:02:32.297Z,95.8
2024-05-09T04:04:17.325Z,96.1
2024-05-09T04:05:33.324Z,96
2024-05-09T04:08:34.347Z,96.1
2024-05-09T04:11:35.364Z,95.6
2024-05-09T04:14:36.388Z,95.6
2024-05-09T04:17:37.418Z,95.7
2024-05-09T04:20:38.443Z,95.6
2024-05-09T04:23:39.458Z,95.3
2024-05-09T04:26:40.489Z,95.9
2024-05-09T04:29:41.511Z,95.8
2024-05-09T04:32:42.535Z,95.6
2024-05-09T04:34:27.576Z,95.1
2024-05-09T04:38:44.577Z,95.1
2024-05-09T04:41:45.608Z,95.2
2024-05-09T04:44:46.631Z,95.7
2024-05-09T04:47:47.648Z,95.4
2024-05-09T04:50:48.669Z,95.3
2024-05-09T04:53:49.692Z,95.5
2024-05-09T04:56:50.723Z,95.4
2024-05-09T04:59:51.739Z,94.6
2024-05-09T05:04:37.831Z,93.8
2024-05-09T05:05:53.806Z,93.7
2024-05-09T05:08:54.828Z,93.9
2024-05-09T05:11:55.855Z,94.4
2024-05-09T05:14:56.874Z,94.3
2024-05-09T05:17:57.903Z,94.6
2024-05-09T05:20:58.927Z,94.8
2024-05-09T05:23:59.952Z,94.3
2024-05-09T05:27:00.976Z,94.5
2024-05-09T05:30:01.993Z,94.7
2024-05-09T05:33:03.016Z,94.6
2024-05-09T05:34:48.080Z,94.4
2024-05-09T05:36:04.061Z,94.5
2024-05-09T05:39:05.081Z,94.3
2024-05-09T05:42:06.111Z,94.2
2024-05-09T05:45:07.135Z,93.9
2024-05-09T05:48:08.150Z,93.4
2024-05-09T05:51:09.177Z,93.1
2024-05-09T05:54:10.199Z,92.9
2024-05-09T05:57:11.224Z,92.9
2024-05-09T06:00:12.250Z,92.2
2024-05-09T06:03:13.269Z,91.3
2024-05-09T06:04:58.331Z,90
2024-05-09T06:06:14.315Z,90.1
2024-05-09T06:09:15.339Z,90.4
2024-05-09T06:12:16.359Z,88.6
2024-05-09T06:15:17.381Z,89.6
2024-05-09T06:18:18.405Z,88.8
2024-05-09T06:21:19.428Z,88.9
2024-05-09T06:24:20.449Z,89.4
2024-05-09T06:27:21.471Z,90.1
2024-05-09T06:30:22.498Z,89.6
2024-05-09T06:35:08.584Z,88.6
2024-05-09T06:36:24.561Z,89
2024-05-09T06:39:25.589Z,88.8
2024-05-09T06:42:26.604Z,89.5
2024-05-09T06:45:27.634Z,89
2024-05-09T06:48:28.657Z,88.4
2024-05-09T06:54:30.704Z,86.4
2024-05-09T06:57:31.718Z,85
2024-05-09T07:03:33.766Z,83
2024-05-09T07:05:18.837Z,81
2024-05-09T07:06:34.969Z,80
2024-05-09T07:09:35.991Z,81.2
2024-05-09T07:12:37.017Z,81.4
2024-05-09T07:15:38.057Z,79.2
2024-05-09T07:18:39.056Z,80.1
2024-05-09T07:21:40.083Z,75.9
2024-05-09T07:24:41.101Z,74.1
2024-05-09T07:27:42.124Z,72.9
2024-05-09T07:30:43.154Z,72.4
2024-05-09T07:33:44.174Z,69.4
2024-05-09T07:35:29.078Z,69.6
2024-05-09T07:36:45.198Z,69.9
2024-05-09T07:39:46.226Z,68.9
2024-05-09T07:42:47.243Z,70.2
2024-05-09T07:45:48.272Z,66.2
2024-05-09T07:48:49.286Z,66.8
2024-05-09T07:51:50.315Z,67.3
2024-05-09T07:54:51.340Z,66.5
2024-05-09T08:00:53.380Z,66.2
2024-05-09T08:03:54.409Z,67
2024-05-09T08:05:39.327Z,68.5
2024-05-09T08:06:55.428Z,67.9
2024-05-09T08:09:56.455Z,68.2
2024-05-09T08:12:57.476Z,64.9
2024-05-09T08:15:58.500Z,63.4
2024-05-09T08:18:59.523Z,64.1
2024-05-09T08:22:00.540Z,65.3
2024-05-09T08:25:01.570Z,66.7
2024-05-09T08:28:02.587Z,59.9
2024-05-09T08:31:03.609Z,65.2
2024-05-09T08:34:04.638Z,61.6
2024-05-09T08:35:49.577Z,59.1
2024-05-09T08:37:05.715Z,56.5
2024-05-09T08:40:06.732Z,57.7
2024-05-09T08:43:07.761Z,57.9
2024-05-09T08:46:08.787Z,58.9
2024-05-09T08:49:09.808Z,58.6
2024-05-09T08:52:10.830Z,60.2
2024-05-09T08:55:11.850Z,59.8
2024-05-09T08:58:12.873Z,57.9
2024-05-09T09:01:13.901Z,52.9
2024-05-09T09:04:14.918Z,54
2024-05-09T09:05:59.832Z,56.1
2024-05-09T09:07:15.946Z,55.4
2024-05-09T09:10:16.971Z,52.4
2024-05-09T09:13:17.992Z,49.7
2024-05-09T09:19:20.031Z,54.5
2024-05-09T09:22:21.053Z,47.2
2024-05-09T09:25:22.075Z,47.5
2024-05-09T09:28:23.105Z,48.8
2024-05-09T09:31:24.122Z,50.1
2024-05-09T09:34:25.145Z,51.1
2024-05-09T09:36:10.073Z,51.5
2024-05-09T09:37:26.166Z,51.1
2024-05-09T09:40:27.193Z,52.9
2024-05-09T09:43:28.214Z,47
2024-05-09T09:48:57.494Z,45.5
2024-05-09T09:51:58.514Z,48.8
2024-05-09T09:54:59.540Z,49.7
2024-05-09T09:58:00.563Z,49.6
2024-05-09T10:01:01.588Z,51
2024-05-09T10:04:02.608Z,49.6
2024-05-09T10:06:20.312Z,52.1
2024-05-09T10:07:36.295Z,46.5
2024-05-09T10:10:37.313Z,49.5
2024-05-09T10:13:38.332Z,43.8
2024-05-09T10:16:39.362Z,46.9
2024-05-09T10:19:40.376Z,53.1
2024-05-09T10:22:41.407Z,50.8
2024-05-09T10:28:10.683Z,50
2024-05-09T10:31:11.702Z,49
2024-05-09T10:34:12.728Z,50.7
2024-05-09T10:36:30.561Z,47.7
2024-05-09T10:37:46.539Z,51.2
2024-05-09T10:40:47.561Z,50.5
2024-05-09T10:43:48.581Z,50.7
2024-05-09T10:46:49.602Z,47.9
2024-05-09T10:49:50.625Z,50.1
2024-05-09T10:52:51.643Z,48.4
2024-05-09T10:55:52.666Z,51.8
2024-05-09T10:58:53.689Z,50.7
2024-05-09T11:01:54.711Z,46.9
2024-05-09T11:06:40.801Z,50.6
2024-05-09T11:07:56.773Z,47.8
2024-05-09T11:10:57.797Z,47.6
2024-05-09T11:13:58.820Z,46
2024-05-09T11:16:59.841Z,49.9
2024-05-09T11:20:00.866Z,45.4
2024-05-09T11:23:01.896Z,48.5
2024-05-09T11:26:02.918Z,51.5
2024-05-09T11:29:03.936Z,45.2
2024-05-09T11:32:04.961Z,43.6
2024-05-09T11:35:05.976Z,45.2
2024-05-09T11:36:51.042Z,44
2024-05-09T11:38:07.019Z,43.1
2024-05-09T11:43:36.302Z,48.7
2024-05-09T11:46:37.323Z,46.8
2024-05-09T11:49:38.350Z,46.3
2024-05-09T11:52:39.373Z,47.3
2024-05-09T11:55:40.392Z,45.9
2024-05-09T11:58:41.418Z,47.6
2024-05-09T12:01:42.440Z,46.3
2024-05-09T12:04:43.459Z,45.4
2024-05-09T12:07:01.287Z,46.7
2024-05-09T12:08:17.263Z,42.4
2024-05-09T12:11:18.292Z,43.5
2024-05-09T12:14:19.313Z,43.3
2024-05-09T12:17:20.332Z,46.9
2024-05-09T12:22:49.620Z,42
2024-05-09T12:25:50.641Z,44
2024-05-09T12:28:51.659Z,44.1
2024-05-09T12:31:52.679Z,46.3
2024-05-09T12:34:53.705Z,46.1
2024-05-09T12:37:11.539Z,45.6
2024-05-09T12:38:27.508Z,47.6
2024-05-09T12:41:28.535Z,47.4
2024-05-09T12:44:29.559Z,47.8
2024-05-09T12:47:30.584Z,44.2
2024-05-09T12:50:31.603Z,45.7
2024-05-09T12:53:32.624Z,44.4
2024-05-09T12:56:33.652Z,43.7
2024-05-09T13:02:02.932Z,43.2
2024-05-09T13:05:03.955Z,47.1
2024-05-09T13:07:21.782Z,45.5
2024-05-09T13:08:37.756Z,43.3
2024-05-09T13:11:38.779Z,45.6
2024-05-09T13:14:39.797Z,45
2024-05-09T13:17:40.826Z,45.9
2024-05-09T13:20:41.842Z,43.6
2024-05-09T13:23:42.864Z,43.6
2024-05-09T13:26:43.888Z,42.5
2024-05-09T13:29:44.917Z,41.4
2024-05-09T13:32:45.939Z,45.1
2024-05-09T13:35:46.958Z,49.5
2024-05-09T13:38:47.985Z,48.5
2024-05-09T13:41:49.003Z,44.6
2024-05-09T13:44:50.024Z,45.3
2024-05-09T13:47:51.048Z,45.1
2024-05-09T13:50:52.069Z,44.6
2024-05-09T13:53:53.090Z,45.8
2024-05-09T13:56:54.117Z,44.3
2024-05-09T13:59:55.142Z,46.2
2024-05-09T14:02:14.620Z,45
2024-05-09T14:03:30.597Z,43.1
2024-05-09T14:06:31.627Z,43.5
2024-05-09T14:09:32.644Z,42.9
2024-05-09T14:12:33.670Z,44.3
2024-05-09T14:21:03.976Z,43
2024-05-09T14:27:06.015Z,42.7
2024-05-09T14:30:07.041Z,42
2024-05-09T14:32:24.872Z,42
2024-05-09T14:33:40.841Z,42.2
2024-05-09T14:36:41.872Z,41.5
2024-05-09T14:39:42.888Z,41
2024-05-09T14:42:43.914Z,42.7
2024-05-09T14:45:44.938Z,47.1
2024-05-09T14:48:45.960Z,40.2
2024-05-09T14:51:46.981Z,42.9
2024-05-09T14:57:16.265Z,42.6
2024-05-09T15:00:17.287Z,42.5
2024-05-09T15:02:35.118Z,46.3
2024-05-09T15:03:51.095Z,41.7
2024-05-09T15:06:52.117Z,41.6
2024-05-09T15:09:53.191Z,40.3
2024-05-09T15:12:54.166Z,41
2024-05-09T15:15:55.180Z,39.1
2024-05-09T15:18:56.204Z,40
2024-05-09T15:21:57.226Z,42.4
2024-05-09T15:24:58.252Z,41.2
2024-05-09T15:27:59.280Z,43.8
2024-05-09T15:31:00.297Z,42.3
2024-05-09T15:34:01.322Z,47.6
2024-05-09T15:37:02.346Z,44.5
2024-05-09T15:40:03.368Z,48
2024-05-09T15:43:04.393Z,50.3
2024-05-09T15:46:05.418Z,51.5
2024-05-09T15:49:06.440Z,47.8
2024-05-09T15:52:07.459Z,46.2
2024-05-09T15:55:08.477Z,45.7
2024-05-09T15:57:27.969Z,42.7
2024-05-09T15:58:43.943Z,42.6
2024-05-09T16:01:44.970Z,42
2024-05-09T16:04:45.988Z,45.6
2024-05-09T16:07:47.011Z,42.2
2024-05-09T16:13:16.287Z,49
2024-05-09T16:16:17.316Z,49.4
2024-05-09T16:19:18.340Z,43
2024-05-09T16:22:19.362Z,48.4
2024-05-09T16:25:20.379Z,43.1
2024-05-09T16:27:38.210Z,41.6
2024-05-09T16:28:54.187Z,42.1
2024-05-09T16:31:55.206Z,45
2024-05-09T16:34:56.237Z,41.9
2024-05-09T16:37:57.256Z,46.3
2024-05-09T16:40:58.279Z,47.6
2024-05-09T16:43:59.302Z,49.9
2024-05-09T16:47:00.323Z,47.4
2024-05-09T16:52:29.602Z,44.3
2024-05-09T16:55:30.622Z,36.2
2024-05-09T16:57:48.457Z,37.2
2024-05-09T16:59:04.429Z,37.7
2024-05-09T17:02:05.457Z,38.3
2024-05-09T17:05:06.477Z,41.6
2024-05-09T17:08:07.496Z,43.3
2024-05-09T17:11:08.528Z,45.7
2024-05-09T17:14:09.548Z,44.8
2024-05-09T17:17:10.565Z,46.3
2024-05-09T17:20:11.595Z,50.6
2024-05-09T17:23:12.608Z,51
2024-05-09T17:26:13.634Z,53.9
2024-05-09T17:29:14.660Z,53.9
2024-05-09T17:32:15.681Z,55
2024-05-09T17:38:17.725Z,51.8
2024-05-09T17:41:18.748Z,53
2024-05-09T17:44:19.769Z,53.6
2024-05-09T17:47:20.792Z,52.2
2024-05-09T17:50:21.823Z,54.2
2024-05-09T17:52:41.300Z,54.4
2024-05-09T17:53:57.280Z,54.9
2024-05-09T17:56:58.307Z,54.8
2024-05-09T17:59:59.321Z,53.1
2024-05-09T18:03:00.352Z,54.9
2024-05-09T18:08:29.630Z,53.8
2024-05-09T18:14:31.673Z,56.6
2024-05-09T18:17:32.697Z,55.6
2024-05-09T18:20:33.714Z,57
2024-05-09T18:22:51.549Z,57.3
2024-05-09T18:24:07.525Z,55.9
2024-05-09T18:27:08.543Z,56.8
2024-05-09T18:30:09.571Z,57.4
2024-05-09T18:33:10.594Z,58.3
2024-05-09T18:36:11.619Z,57.6
2024-05-09T18:39:12.636Z,58.5
2024-05-09T18:42:13.663Z,58.6
2024-05-09T18:47:42.947Z,59
2024-05-09T18:50:43.967Z,59.3
2024-05-09T18:53:01.797Z,60.5
2024-05-09T18:54:17.955Z,60.5
2024-05-09T18:57:18.978Z,60.6
2024-05-09T19:00:19.995Z,61.1
2024-05-09T19:03:21.021Z,61.8
2024-05-09T19:06:22.039Z,61.9
2024-05-09T19:09:23.062Z,61.6
2024-05-09T19:12:24.086Z,62.6
2024-05-09T19:15:25.111Z,62.1
2024-05-09T19:18:26.136Z,61.7
2024-05-09T19:21:27.158Z,61.7
2024-05-09T19:24:28.180Z,61.6
2024-05-09T19:27:29.209Z,64.4
2024-05-09T19:30:30.223Z,66.6
2024-05-09T19:33:31.253Z,67.6
2024-05-09T19:36:32.276Z,70.8
2024-05-09T19:39:33.294Z,71.3
2024-05-09T19:42:34.318Z,72
2024-05-09T19:45:35.347Z,73.3
2024-05-09T19:47:54.652Z,72.2
2024-05-09T19:49:10.680Z,73.9
2024-05-09T19:52:11.705Z,74.2
2024-05-09T19:55:12.731Z,74.8
2024-05-09T19:58:13.749Z,76.2
2024-05-09T20:03:43.031Z,75.7
2024-05-09T20:06:44.057Z,75.7
2024-05-09T20:09:45.082Z,77.1
2024-05-09T20:12:46.105Z,78.2
2024-05-09T20:15:47.125Z,77.4
2024-05-09T20:18:04.900Z,78.1
2024-05-09T20:19:20.930Z,80
2024-05-09T20:22:21.952Z,79.7
2024-05-09T20:25:22.976Z,79.2
2024-05-09T20:28:23.995Z,79.5
2024-05-09T20:31:25.026Z,79.8
2024-05-09T20:34:26.046Z,79.9
2024-05-09T20:37:27.070Z,79
2024-05-09T20:42:56.352Z,79.9
2024-05-09T20:45:57.380Z,79.3
2024-05-09T20:48:15.148Z,79.3
2024-05-09T20:49:31.343Z,78.7
2024-05-09T20:52:32.358Z,79.2
2024-05-09T20:55:33.381Z,79.2
2024-05-09T20:58:34.405Z,79.9
2024-05-09T21:01:35.428Z,80.3
2024-05-09T21:04:36.457Z,81
2024-05-09T21:07:37.481Z,81.4
2024-05-09T21:10:38.496Z,81.1
2024-05-09T21:13:39.522Z,81.4
2024-05-09T21:16:40.550Z,81.7
2024-05-09T21:18:25.398Z,82.5
2024-05-09T21:19:41.571Z,82.9
2024-05-09T21:22:42.596Z,83
2024-05-09T21:25:43.614Z,83.8
2024-05-09T21:28:44.640Z,84.1
2024-05-09T21:31:45.659Z,84.4
2024-05-09T21:34:46.681Z,84.9
2024-05-09T21:37:47.708Z,85.9
2024-05-09T21:40:48.732Z,86.4
2024-05-09T21:43:49.752Z,87
2024-05-09T21:46:50.774Z,86.1
2024-05-09T21:48:35.644Z,85.5
2024-05-09T21:49:51.804Z,85.8
2024-05-09T21:52:52.827Z,85
2024-05-09T21:55:53.845Z,84.7
2024-05-09T21:58:54.869Z,84.8
2024-05-09T22:01:55.894Z,85.3
2024-05-09T22:04:56.911Z,84.6
2024-05-09T22:07:57.931Z,85
2024-05-09T22:10:58.962Z,84.4
2024-05-09T22:13:59.986Z,84.9
2024-05-09T22:17:01.002Z,84.6
2024-05-09T22:18:42.749Z,84.7
2024-05-09T22:20:02.033Z,84.4
2024-05-09T22:23:03.048Z,84.5
2024-05-09T22:26:04.073Z,84.7
2024-05-09T22:29:05.100Z,85.6
2024-05-09T22:32:06.122Z,86
2024-05-09T22:35:07.143Z,85.3
2024-05-09T22:38:08.171Z,85.3
2024-05-09T22:41:09.187Z,84.7
2024-05-09T22:44:10.208Z,84.9
2024-05-09T22:47:11.232Z,86.5
2024-05-09T22:48:56.143Z,86.3
2024-05-09T22:50:12.262Z,86
2024-05-09T22:53:13.279Z,85.9
2024-05-09T22:56:11.141Z,86
2024-05-09T22:59:15.324Z,86.3
2024-05-09T23:02:16.356Z,86.5
2024-05-09T23:05:17.373Z,86.9
2024-05-09T23:08:18.393Z,87
2024-05-09T23:11:19.424Z,87
2024-05-09T23:14:20.446Z,87.7
2024-05-09T23:17:21.465Z,86.7
2024-05-09T23:19:06.394Z,87.6
2024-05-09T23:20:22.489Z,87.5
2024-05-09T23:23:23.518Z,87.4
2024-05-09T23:26:24.540Z,87.4
2024-05-09T23:29:25.562Z,88
2024-05-09T23:32:26.581Z,88.3
2024-05-09T23:35:27.609Z,88.4
2024-05-09T23:38:28.628Z,88.5
2024-05-09T23:41:29.651Z,88.9
2024-05-09T23:44:30.674Z,89.2
2024-05-09T23:47:31.699Z,88.8
2024-05-09T23:49:16.643Z,89.1
2024-05-09T23:50:32.726Z,89.3
2024-05-09T23:53:33.754Z,89.9
2024-05-09T23:56:34.773Z,89.1
2024-05-09T23:59:35.801Z,89.4
